Terminal Aerodrome Forecast
Issued by NWS Atlanta, GA

Home | Current Version | Previous Version | Text Only | Print | Product List | Glossary On
Versions: 1 2 3 4 5 6 7 8 9 10 11 12 13 14 15 16
000
FTUS42 KFFC 221721
TAFCSG
TAF
KCSG 221721Z 2218/2318 12012KT P6SM OVC015
     FM222100 12012G21KT 4SM SHRA OVC018
     FM230100 12015G24KT 2SM +SHRA OVC010
     FM230900 13007KT P6SM SHRA OVC007
     FM231100 14007KT P6SM VCSH OVC005
     FM231500 20006KT P6SM BKN012 PROB30 2315/2318 5SM TSRA
      OVC010CB=

USA.gov is the U.S. government's official web portal to all federal, state and local government web resources and services.